Time;durP1;ratioP1;P1;durP2;ratioP2;P2;SDS_P1;SDS_P2;PMS_P1;PMS_P2;Temp;Humidity;BMP_temperature;BMP_pressure;BME280_temperature;BME280_humidity;BME280_pressure;Samples;Min_cycle;Max_cycle;Signal;HPM_P1;HPM_P2
2023/05/22 00:01:59;;;;;;;44.45;38.03;;;15.30;99.90;;;;;;5268086;28;20028;-69
2023/05/22 00:04:30;;;;;;;41.78;37.47;;;15.30;99.90;;;;;;5267998;28;20100;-69
2023/05/22 00:07:02;;;;;;;41.80;37.17;;;15.20;99.90;;;;;;5268063;28;20153;-68
2023/05/22 00:09:33;;;;;;;43.15;32.95;;;15.30;99.90;;;;;;5267943;28;20021;-69
2023/05/22 00:12:04;;;;;;;39.53;35.38;;;15.40;99.90;;;;;;5267999;28;20059;-68
2023/05/22 00:14:35;;;;;;;39.03;34.70;;;15.30;99.90;;;;;;5267829;28;20032;-68
2023/05/22 00:17:06;;;;;;;39.45;35.15;;;15.30;99.90;;;;;;5267825;28;20548;-69
2023/05/22 00:19:37;;;;;;;42.90;35.25;;;15.30;99.90;;;;;;5267591;28;20024;-66
2023/05/22 00:22:09;;;;;;;39.72;35.72;;;15.30;99.90;;;;;;5267856;28;20078;-69
2023/05/22 00:24:39;;;;;;;44.15;39.38;;;15.20;99.90;;;;;;5267790;28;20024;-69
2023/05/22 00:27:10;;;;;;;47.10;39.45;;;15.30;99.90;;;;;;5267702;28;20495;-68
2023/05/22 00:29:41;;;;;;;47.08;38.15;;;15.30;99.90;;;;;;5270595;28;20425;-69
2023/05/22 00:32:12;;;;;;;41.70;37.22;;;15.30;99.90;;;;;;5271866;28;20107;-69
2023/05/22 00:34:42;;;;;;;42.95;38.33;;;15.40;99.90;;;;;;5271802;28;20035;-68
2023/05/22 00:37:13;;;;;;;42.50;38.35;;;15.50;99.90;;;;;;5271786;28;20032;-69
2023/05/22 00:39:45;;;;;;;41.40;36.97;;;15.40;99.90;;;;;;5271655;28;20131;-68
2023/05/22 00:42:17;;;;;;;41.90;37.75;;;15.40;99.90;;;;;;5271753;28;20379;-69
2023/05/22 00:44:48;;;;;;;38.70;34.55;;;15.50;99.90;;;;;;5271634;28;20004;-67
2023/05/22 00:47:20;;;;;;;40.80;36.70;;;15.40;99.90;;;;;;5271565;28;20035;-67
2023/05/22 00:49:50;;;;;;;40.58;35.22;;;15.50;99.90;;;;;;5271049;28;20101;-69
2023/05/22 00:52:22;;;;;;;40.42;35.80;;;15.50;99.90;;;;;;5271607;28;20056;-67
2023/05/22 00:54:53;;;;;;;40.78;36.78;;;15.40;99.90;;;;;;5271487;28;20370;-69
2023/05/22 00:57:24;;;;;;;41.03;36.70;;;15.40;99.90;;;;;;5271474;28;20035;-67
2023/05/22 00:59:55;;;;;;;40.95;36.92;;;15.30;99.90;;;;;;5271456;28;20028;-68
2023/05/22 01:02:27;;;;;;;40.25;36.13;;;15.40;99.90;;;;;;5271619;28;20024;-69
2023/05/22 01:04:58;;;;;;;41.55;35.42;;;15.30;99.90;;;;;;5271264;28;20008;-68
2023/05/22 01:07:29;;;;;;;39.33;35.80;;;15.30;99.90;;;;;;5271412;28;20078;-66
2023/05/22 01:10:00;;;;;;;39.47;35.38;;;15.30;99.90;;;;;;5271252;28;20439;-69
2023/05/22 01:12:52;;;;;;;40.80;35.97;;;15.30;99.90;;;;;;5271192;28;20030;-69
2023/05/22 01:15:43;;;;;;;39.50;35.70;;;15.30;99.90;;;;;;5271187;28;20467;-66
2023/05/22 01:18:30;;;;;;;40.58;36.97;;;15.30;99.90;;;;;;5270922;28;20097;-69
2023/05/22 01:21:17;;;;;;;38.35;34.85;;;15.30;99.90;;;;;;5270928;28;20377;-69
2023/05/22 01:24:10;;;;;;;38.20;34.35;;;15.20;99.90;;;;;;5270941;28;20085;-69
2023/05/22 01:26:59;;;;;;;38.70;35.13;;;15.20;99.90;;;;;;5270852;28;20028;-69
2023/05/22 01:29:56;;;;;;;39.50;35.33;;;15.20;99.90;;;;;;5270939;28;20067;-69
2023/05/22 01:32:28;;;;;;;39.60;35.50;;;15.30;99.90;;;;;;5270810;28;20027;-69
2023/05/22 01:35:04;;;;;;;35.03;31.55;;;15.30;99.90;;;;;;5270526;28;20032;-66
2023/05/22 01:37:36;;;;;;;34.25;30.75;;;15.20;99.90;;;;;;5270620;28;20028;-69
2023/05/22 01:40:08;;;;;;;35.42;32.00;;;15.20;99.90;;;;;;5269562;28;20476;-69
2023/05/22 01:42:40;;;;;;;37.83;33.88;;;15.30;99.90;;;;;;5270498;28;20035;-69
2023/05/22 01:45:11;;;;;;;37.05;33.53;;;15.20;99.90;;;;;;5270463;28;20032;-69
2023/05/22 01:47:42;;;;;;;35.22;31.73;;;15.30;99.90;;;;;;5270389;28;20115;-69
2023/05/22 01:50:13;;;;;;;37.92;34.35;;;15.30;99.90;;;;;;5270064;28;20055;-66
2023/05/22 01:53:06;;;;;;;35.55;31.77;;;15.40;99.90;;;;;;5270269;28;20028;-67
2023/05/22 01:55:54;;;;;;;37.33;33.70;;;15.40;99.90;;;;;;5270244;28;20095;-66
2023/05/22 01:58:32;;;;;;;39.22;35.58;;;15.40;99.90;;;;;;5270160;28;20111;-68
2023/05/22 02:01:03;;;;;;;39.63;35.92;;;15.30;99.90;;;;;;5270082;28;20032;-69
2023/05/22 02:03:35;;;;;;;36.97;33.45;;;15.40;99.90;;;;;;5270037;28;20074;-68
2023/05/22 02:06:08;;;;;;;38.53;34.75;;;15.40;99.90;;;;;;5269902;28;20511;-68
2023/05/22 02:08:41;;;;;;;36.10;32.85;;;15.40;99.90;;;;;;5270022;28;20968;-69
2023/05/22 02:11:14;;;;;;;36.90;33.42;;;15.40;99.90;;;;;;5269946;28;20024;-69
2023/05/22 02:13:45;;;;;;;38.78;31.42;;;15.40;99.90;;;;;;5269981;28;20032;-69
2023/05/22 02:16:16;;;;;;;37.50;32.85;;;15.40;99.90;;;;;;5269986;28;20036;-69
2023/05/22 02:18:47;;;;;;;36.80;32.95;;;15.40;99.90;;;;;;5270074;28;20039;-69
2023/05/22 02:21:18;;;;;;;38.03;34.40;;;15.40;99.90;;;;;;5269836;28;20039;-66
2023/05/22 02:23:49;;;;;;;38.28;34.17;;;15.50;99.90;;;;;;5268445;28;20153;-69
2023/05/22 02:26:20;;;;;;;36.45;32.63;;;15.50;99.90;;;;;;5269700;28;20754;-68
2023/05/22 02:28:51;;;;;;;37.55;33.65;;;15.50;99.90;;;;;;5269593;28;20115;-69
2023/05/22 02:31:22;;;;;;;35.95;32.00;;;15.50;99.90;;;;;;5269579;28;20099;-69
2023/05/22 02:33:52;;;;;;;36.92;31.33;;;15.50;99.90;;;;;;5269403;28;20104;-69
2023/05/22 02:36:25;;;;;;;36.25;32.40;;;15.50;99.90;;;;;;5269555;28;20343;-69
2023/05/22 02:38:55;;;;;;;36.83;32.38;;;15.50;99.90;;;;;;5269340;28;20028;-69
2023/05/22 02:41:26;;;;;;;37.20;33.47;;;15.50;99.90;;;;;;5269167;28;20119;-69
2023/05/22 02:43:57;;;;;;;36.08;32.33;;;15.40;99.90;;;;;;5269287;28;20103;-69
2023/05/22 02:46:28;;;;;;;36.70;32.30;;;15.50;99.90;;;;;;5269300;28;20093;-66
2023/05/22 02:48:58;;;;;;;36.90;31.85;;;15.50;99.90;;;;;;5268866;28;20430;-68
2023/05/22 02:51:29;;;;;;;38.10;33.13;;;15.50;99.90;;;;;;5269000;28;20434;-66
2023/05/22 02:54:00;;;;;;;38.40;34.13;;;15.40;99.90;;;;;;5267805;28;20085;-66
2023/05/22 02:56:31;;;;;;;37.25;33.47;;;15.40;99.90;;;;;;5268999;28;20446;-68
2023/05/22 02:59:02;;;;;;;37.05;33.10;;;15.40;99.90;;;;;;5268863;28;20024;-69
2023/05/22 03:01:33;;;;;;;39.50;32.10;;;15.50;99.90;;;;;;5268829;28;20043;-69
2023/05/22 03:04:05;;;;;;;39.30;34.67;;;15.50;99.90;;;;;;5268718;28;20038;-68
2023/05/22 03:06:36;;;;;;;37.20;33.30;;;15.50;99.90;;;;;;5267611;28;20517;-69
2023/05/22 03:09:07;;;;;;;38.30;34.50;;;15.50;99.90;;;;;;5268770;28;20044;-69
2023/05/22 03:11:38;;;;;;;37.63;33.75;;;15.60;99.90;;;;;;5268763;28;20137;-69
2023/05/22 03:14:09;;;;;;;38.00;34.00;;;15.50;99.90;;;;;;5268644;28;20426;-69
2023/05/22 03:16:40;;;;;;;36.58;32.85;;;15.60;99.90;;;;;;5268679;28;20036;-68
2023/05/22 03:19:15;;;;;;;40.47;34.85;;;15.60;99.90;;;;;;5268368;28;20384;-69
2023/05/22 03:21:47;;;;;;;39.42;34.90;;;15.40;99.90;;;;;;5268561;28;20032;-69
2023/05/22 03:24:18;;;;;;;39.33;33.70;;;15.50;99.90;;;;;;5268493;28;20381;-69
2023/05/22 03:26:48;;;;;;;36.58;32.78;;;15.50;99.90;;;;;;5268755;28;20070;-69
2023/05/22 03:29:20;;;;;;;40.20;33.47;;;15.50;99.90;;;;;;5268526;28;20073;-68
2023/05/22 03:31:52;;;;;;;35.15;31.55;;;15.40;99.90;;;;;;5268592;28;20016;-69
2023/05/22 03:34:23;;;;;;;37.83;34.15;;;15.50;99.90;;;;;;5268580;28;20042;-68
2023/05/22 03:36:56;;;;;;;39.03;35.17;;;15.50;99.90;;;;;;5268467;28;20023;-69
2023/05/22 03:39:26;;;;;;;39.00;34.75;;;15.50;99.90;;;;;;5268354;28;20115;-69
2023/05/22 03:41:57;;;;;;;40.05;35.85;;;15.50;99.90;;;;;;5268209;28;20119;-67
2023/05/22 03:44:28;;;;;;;40.55;36.53;;;15.50;99.90;;;;;;5268224;28;20028;-68
2023/05/22 03:46:59;;;;;;;40.78;36.60;;;15.50;99.90;;;;;;5268250;28;20036;-69
2023/05/22 03:49:29;;;;;;;40.03;36.05;;;15.50;99.90;;;;;;5268015;28;20048;-69
2023/05/22 03:52:01;;;;;;;40.17;36.00;;;15.50;99.90;;;;;;5268293;28;20036;-69
2023/05/22 03:54:31;;;;;;;40.83;36.60;;;15.50;99.90;;;;;;5268021;28;20024;-67
2023/05/22 03:57:02;;;;;;;39.80;36.08;;;15.50;99.90;;;;;;5268148;28;20017;-69
2023/05/22 03:59:33;;;;;;;40.50;36.35;;;15.50;99.90;;;;;;5267867;28;20080;-69
2023/05/22 04:02:04;;;;;;;42.90;38.15;;;15.50;99.90;;;;;;5268061;28;20661;-69
2023/05/22 04:04:37;;;;;;;42.55;37.92;;;15.50;99.90;;;;;;5267377;28;20025;-69
2023/05/22 04:07:07;;;;;;;43.92;39.65;;;15.40;99.90;;;;;;5267860;28;20081;-69
2023/05/22 04:09:39;;;;;;;43.58;39.42;;;15.50;99.90;;;;;;5267861;28;20044;-66
2023/05/22 04:12:10;;;;;;;45.72;41.03;;;15.50;99.90;;;;;;5267848;28;20070;-68
2023/05/22 04:14:41;;;;;;;43.72;39.08;;;15.50;99.90;;;;;;5267958;28;20091;-68
2023/05/22 04:17:12;;;;;;;44.85;40.33;;;15.40;99.90;;;;;;5267830;28;20032;-69
2023/05/22 04:19:42;;;;;;;45.35;40.70;;;15.50;99.90;;;;;;5267569;28;20028;-68
2023/05/22 04:22:13;;;;;;;43.97;39.53;;;15.50;99.90;;;;;;5267744;28;20036;-69
2023/05/22 04:24:47;;;;;;;44.70;40.10;;;15.50;99.90;;;;;;5267802;28;20081;-69
2023/05/22 04:27:21;;;;;;;42.58;38.25;;;15.50;99.90;;;;;;5267745;28;20035;-67
2023/05/22 04:29:52;;;;;;;42.85;38.22;;;15.50;99.90;;;;;;5267653;28;20375;-69
2023/05/22 04:32:23;;;;;;;48.63;39.72;;;15.50;99.90;;;;;;5267533;28;20028;-69
2023/05/22 04:34:57;;;;;;;44.42;39.78;;;15.50;99.90;;;;;;5267646;28;20755;-66
2023/05/22 04:37:30;;;;;;;41.97;37.70;;;15.40;99.90;;;;;;5267518;28;20035;-66
2023/05/22 04:40:06;;;;;;;42.92;36.83;;;15.50;99.90;;;;;;5267541;28;20032;-68
2023/05/22 04:42:38;;;;;;;42.38;38.17;;;15.60;99.90;;;;;;5267572;28;20036;-69
2023/05/22 04:45:09;;;;;;;40.13;36.30;;;15.60;99.90;;;;;;5267573;28;20430;-67
2023/05/22 04:47:40;;;;;;;41.08;36.88;;;15.70;99.90;;;;;;5267736;28;20024;-69
2023/05/22 04:50:13;;;;;;;39.63;35.50;;;15.80;99.90;;;;;;5267398;28;20051;-68
2023/05/22 04:52:44;;;;;;;41.45;37.28;;;15.80;99.90;;;;;;5267569;28;20082;-69
2023/05/22 04:55:16;;;;;;;41.97;37.58;;;15.80;99.90;;;;;;5267603;28;20036;-69
2023/05/22 04:57:46;;;;;;;41.58;37.55;;;15.90;99.90;;;;;;5267517;28;20107;-69
2023/05/22 05:00:18;;;;;;;39.97;35.78;;;15.90;99.90;;;;;;5267449;28;20123;-69
2023/05/22 05:02:48;;;;;;;39.70;36.00;;;15.90;99.90;;;;;;5267416;28;20028;-69
2023/05/22 05:05:19;;;;;;;42.22;38.22;;;15.90;99.90;;;;;;5267368;28;20387;-67
2023/05/22 05:07:50;;;;;;;42.08;37.88;;;16.00;99.90;;;;;;5267465;28;20486;-68
2023/05/22 05:10:21;;;;;;;40.28;36.05;;;16.00;99.90;;;;;;5267346;28;20510;-67
2023/05/22 05:12:52;;;;;;;41.03;36.97;;;16.00;99.90;;;;;;5267250;28;20043;-68
2023/05/22 05:15:22;;;;;;;39.33;35.33;;;15.90;99.90;;;;;;5268002;28;20048;-69
2023/05/22 05:17:53;;;;;;;39.50;35.40;;;16.00;99.90;;;;;;5270948;28;20028;-66
2023/05/22 05:20:26;;;;;;;38.70;34.95;;;15.90;99.90;;;;;;5270787;28;20051;-68
2023/05/22 05:22:57;;;;;;;37.38;33.97;;;16.00;99.90;;;;;;5270927;28;20020;-69
2023/05/22 05:25:27;;;;;;;37.13;33.38;;;16.10;99.90;;;;;;5270950;28;20016;-69
2023/05/22 05:27:58;;;;;;;37.95;34.38;;;16.20;99.90;;;;;;5270912;28;20510;-69
2023/05/22 05:30:30;;;;;;;35.63;32.15;;;16.10;99.90;;;;;;5270780;28;20713;-68
2023/05/22 05:33:01;;;;;;;39.20;35.13;;;16.10;99.90;;;;;;5270782;28;20413;-67
2023/05/22 05:35:32;;;;;;;39.10;35.40;;;16.10;99.90;;;;;;5270507;28;20099;-68
2023/05/22 05:38:03;;;;;;;37.55;33.75;;;16.10;99.90;;;;;;5270682;28;20035;-69
2023/05/22 05:40:33;;;;;;;38.15;34.38;;;16.20;99.90;;;;;;5270482;28;20032;-69
2023/05/22 05:43:05;;;;;;;38.47;34.80;;;16.10;99.90;;;;;;5269345;28;20021;-69
2023/05/22 05:45:36;;;;;;;36.88;33.35;;;16.30;99.90;;;;;;5270399;28;20052;-69
2023/05/22 05:48:07;;;;;;;38.40;34.90;;;16.30;99.90;;;;;;5270317;28;20058;-66
2023/05/22 05:50:38;;;;;;;37.72;34.38;;;16.30;99.90;;;;;;5270146;28;20048;-68
2023/05/22 05:53:09;;;;;;;39.20;35.50;;;16.30;99.90;;;;;;5269158;28;20028;-69
2023/05/22 05:55:40;;;;;;;37.95;34.10;;;16.40;99.90;;;;;;5270452;28;20402;-67
2023/05/22 05:58:11;;;;;;;36.33;32.72;;;16.30;99.90;;;;;;5270431;28;20077;-68
2023/05/22 06:00:41;;;;;;;35.80;32.40;;;16.30;99.90;;;;;;5270222;28;20016;-69
2023/05/22 06:03:12;;;;;;;36.72;33.22;;;16.50;99.90;;;;;;5270371;28;20039;-69
2023/05/22 06:05:44;;;;;;;36.65;33.15;;;16.40;99.90;;;;;;5270461;28;20490;-67
2023/05/22 06:08:15;;;;;;;36.10;32.97;;;16.40;99.90;;;;;;5270226;28;20039;-69
2023/05/22 06:10:47;;;;;;;37.97;34.50;;;16.40;99.90;;;;;;5270109;28;20020;-69
2023/05/22 06:13:17;;;;;;;35.65;32.55;;;16.10;99.90;;;;;;5270076;28;20031;-68
2023/05/22 06:15:48;;;;;;;38.80;35.42;;;16.00;99.90;;;;;;5270036;28;20016;-68
2023/05/22 06:18:19;;;;;;;35.53;32.20;;;15.90;99.90;;;;;;5269567;28;20058;-69
2023/05/22 06:20:52;;;;;;;36.08;32.25;;;16.00;99.90;;;;;;5269898;28;20110;-69
2023/05/22 06:23:22;;;;;;;36.17;32.72;;;16.00;99.90;;;;;;5269662;28;20027;-68
2023/05/22 06:25:54;;;;;;;35.72;32.33;;;16.10;99.90;;;;;;5269396;28;20479;-69
2023/05/22 06:28:25;;;;;;;34.58;30.85;;;15.90;99.90;;;;;;5269547;28;20444;-69
2023/05/22 06:30:56;;;;;;;35.95;32.53;;;16.00;99.90;;;;;;5269616;28;20107;-69
2023/05/22 06:33:27;;;;;;;35.95;32.65;;;15.90;99.90;;;;;;5269347;28;20571;-69
2023/05/22 06:35:58;;;;;;;36.85;33.35;;;15.90;99.90;;;;;;5269534;28;20038;-69
2023/05/22 06:38:30;;;;;;;37.65;34.10;;;15.90;99.90;;;;;;5269345;28;20028;-69
2023/05/22 06:41:01;;;;;;;37.92;34.25;;;16.00;99.90;;;;;;5269332;28;20353;-69
2023/05/22 06:43:32;;;;;;;36.25;32.85;;;16.10;99.90;;;;;;5269309;28;20102;-66
2023/05/22 06:46:03;;;;;;;34.35;31.02;;;16.20;99.90;;;;;;5269330;28;20459;-69
2023/05/22 06:48:34;;;;;;;35.35;32.33;;;16.10;99.90;;;;;;5269057;28;20425;-69
2023/05/22 06:51:05;;;;;;;39.20;35.67;;;16.00;99.90;;;;;;5269018;28;20079;-69
2023/05/22 06:53:36;;;;;;;35.10;31.70;;;16.10;99.90;;;;;;5269128;28;20479;-69
2023/05/22 06:56:07;;;;;;;35.85;32.53;;;16.10;99.90;;;;;;5269107;28;20017;-68
2023/05/22 06:58:38;;;;;;;36.78;33.33;;;16.20;99.90;;;;;;5268912;28;20077;-68
2023/05/22 07:01:09;;;;;;;33.28;29.95;;;16.20;99.90;;;;;;5269050;28;20109;-69
2023/05/22 07:03:40;;;;;;;35.00;31.65;;;16.30;99.90;;;;;;5268921;28;20024;-68
2023/05/22 07:06:11;;;;;;;35.85;32.20;;;16.30;99.90;;;;;;5269255;28;20024;-68
2023/05/22 07:08:41;;;;;;;34.85;31.63;;;16.40;99.90;;;;;;5269095;28;20024;-66
2023/05/22 07:11:12;;;;;;;33.35;30.40;;;16.40;99.90;;;;;;5268851;28;20379;-68
2023/05/22 07:13:43;;;;;;;30.85;28.02;;;16.50;99.90;;;;;;5268753;28;20120;-69
2023/05/22 07:16:14;;;;;;;34.55;30.95;;;16.30;99.90;;;;;;5268877;28;20027;-69
2023/05/22 07:18:45;;;;;;;34.45;31.25;;;16.50;99.90;;;;;;5268522;28;20067;-69
2023/05/22 07:21:15;;;;;;;33.25;30.40;;;16.50;99.90;;;;;;5268587;28;20128;-69
2023/05/22 07:23:46;;;;;;;33.13;29.52;;;16.40;99.90;;;;;;5268630;28;20020;-69
2023/05/22 07:26:17;;;;;;;32.53;29.42;;;16.50;99.90;;;;;;5268480;28;20119;-66
2023/05/22 07:28:49;;;;;;;31.73;28.85;;;16.50;99.90;;;;;;5268505;28;20065;-66
2023/05/22 07:31:19;;;;;;;30.05;27.15;;;16.60;99.90;;;;;;5268423;28;20386;-69
2023/05/22 07:33:50;;;;;;;33.45;30.63;;;16.70;99.90;;;;;;5268381;28;20021;-69
2023/05/22 07:36:21;;;;;;;32.20;29.08;;;17.00;99.90;;;;;;5268376;28;20449;-69
2023/05/22 07:38:52;;;;;;;36.05;32.75;;;17.30;99.90;;;;;;5267530;28;20107;-68
2023/05/22 07:41:26;;;;;;;35.38;32.47;;;17.40;99.90;;;;;;5268141;28;20403;-68
2023/05/22 07:43:56;;;;;;;34.13;31.15;;;17.40;99.90;;;;;;5268214;28;20024;-69
2023/05/22 07:46:27;;;;;;;32.50;29.65;;;17.30;99.90;;;;;;5268141;28;20027;-69
2023/05/22 07:48:58;;;;;;;31.92;29.13;;;17.20;99.90;;;;;;5267750;28;20119;-68
2023/05/22 07:51:30;;;;;;;33.92;30.67;;;17.30;99.90;;;;;;5268215;28;20357;-66
2023/05/22 07:54:01;;;;;;;36.03;33.03;;;17.30;99.90;;;;;;5268136;28;20456;-66
2023/05/22 07:56:31;;;;;;;35.63;32.20;;;17.10;99.90;;;;;;5268100;28;20032;-68
2023/05/22 07:59:02;;;;;;;35.42;32.33;;;17.20;99.90;;;;;;5267922;28;20016;-69
2023/05/22 08:01:33;;;;;;;36.42;33.30;;;17.20;99.90;;;;;;5267889;28;20156;-66
2023/05/22 08:04:04;;;;;;;35.95;32.95;;;17.40;99.90;;;;;;5267966;28;20020;-69
2023/05/22 08:06:35;;;;;;;38.20;35.13;;;17.30;99.90;;;;;;5268067;28;20048;-68
2023/05/22 08:09:06;;;;;;;35.35;32.63;;;17.20;99.90;;;;;;5267889;28;20052;-69
2023/05/22 08:11:38;;;;;;;41.08;37.67;;;17.50;99.90;;;;;;5267863;28;20464;-69
2023/05/22 08:14:10;;;;;;;38.70;35.25;;;17.30;99.90;;;;;;5267934;28;20091;-69
2023/05/22 08:16:40;;;;;;;38.88;35.75;;;17.40;99.90;;;;;;5268156;28;20020;-69
2023/05/22 08:19:11;;;;;;;36.45;33.35;;;17.70;99.90;;;;;;5267837;28;20426;-69
2023/05/22 08:21:42;;;;;;;37.42;34.60;;;17.70;99.90;;;;;;5267940;28;20055;-69
2023/05/22 08:24:13;;;;;;;35.67;33.03;;;17.70;99.90;;;;;;5268228;28;20500;-69
2023/05/22 08:26:44;;;;;;;34.42;31.67;;;17.90;99.90;;;;;;5267888;28;20047;-69
2023/05/22 08:29:15;;;;;;;34.80;31.95;;;18.10;99.90;;;;;;5267819;28;20028;-69
2023/05/22 08:31:45;;;;;;;33.20;30.50;;;17.80;99.90;;;;;;5267869;28;20086;-69
2023/05/22 08:34:16;;;;;;;31.60;28.83;;;17.90;99.90;;;;;;5267684;28;20032;-69
2023/05/22 08:36:48;;;;;;;32.38;29.58;;;17.90;99.90;;;;;;5267645;28;20063;-69
2023/05/22 08:39:19;;;;;;;28.98;26.42;;;17.90;99.90;;;;;;5267695;28;20020;-66
2023/05/22 08:41:50;;;;;;;27.15;24.50;;;17.90;99.90;;;;;;5267640;28;20380;-69
2023/05/22 08:44:21;;;;;;;29.02;26.63;;;18.10;99.90;;;;;;5267715;28;20027;-69
2023/05/22 08:46:55;;;;;;;28.55;26.15;;;18.00;99.90;;;;;;5267625;28;20052;-69
2023/05/22 08:49:26;;;;;;;27.95;25.75;;;18.00;99.90;;;;;;5268163;28;20118;-69
2023/05/22 08:52:06;;;;;;;27.95;25.58;;;17.90;99.90;;;;;;5271606;28;20404;-69
2023/05/22 08:54:43;;;;;;;27.10;24.80;;;18.00;99.90;;;;;;5271626;28;20032;-69
2023/05/22 08:57:15;;;;;;;29.00;26.55;;;18.00;99.90;;;;;;5271589;28;20024;-69
2023/05/22 08:59:47;;;;;;;28.80;26.40;;;18.50;99.90;;;;;;5271288;28;20020;-68
2023/05/22 09:02:18;;;;;;;30.33;27.83;;;18.10;99.90;;;;;;5271289;28;20044;-68
2023/05/22 09:04:49;;;;;;;27.05;24.88;;;18.30;99.90;;;;;;5271197;28;20521;-69
2023/05/22 09:07:20;;;;;;;30.25;27.33;;;18.10;99.90;;;;;;5271201;28;20032;-69
2023/05/22 09:09:51;;;;;;;30.63;28.33;;;18.40;99.90;;;;;;5271231;28;20043;-69
2023/05/22 09:12:25;;;;;;;30.38;27.92;;;18.20;99.90;;;;;;5271169;28;20427;-69
2023/05/22 09:15:02;;;;;;;31.38;28.92;;;17.90;99.90;;;;;;5271152;28;20022;-68
2023/05/22 09:17:33;;;;;;;31.10;28.33;;;18.30;99.90;;;;;;5271196;28;20085;-67
2023/05/22 09:20:04;;;;;;;31.63;28.73;;;18.10;99.90;;;;;;5270911;28;20020;-69
2023/05/22 09:22:37;;;;;;;33.05;30.48;;;18.10;99.90;;;;;;5270993;28;20115;-68
2023/05/22 09:25:08;;;;;;;31.30;28.45;;;18.00;99.90;;;;;;5270925;28;20108;-66
2023/05/22 09:27:38;;;;;;;31.17;28.35;;;18.10;99.90;;;;;;5270946;28;20024;-69
2023/05/22 09:30:10;;;;;;;30.88;28.15;;;18.30;99.90;;;;;;5270933;28;20085;-69
2023/05/22 09:32:40;;;;;;;30.60;27.85;;;18.30;99.90;;;;;;5271099;28;20016;-68
2023/05/22 09:35:12;;;;;;;30.38;28.13;;;18.20;99.90;;;;;;5270989;28;20032;-69
2023/05/22 09:37:43;;;;;;;29.60;26.83;;;18.40;99.90;;;;;;5270685;28;20032;-69
2023/05/22 09:40:14;;;;;;;31.50;28.90;;;18.60;99.90;;;;;;5270650;28;20064;-69
2023/05/22 09:42:45;;;;;;;28.85;26.45;;;18.70;99.90;;;;;;5270657;28;20107;-69
2023/05/22 09:45:21;;;;;;;27.02;24.55;;;18.90;99.90;;;;;;5270585;28;20039;-66
2023/05/22 09:47:52;;;;;;;26.77;24.70;;;19.00;99.90;;;;;;5270671;28;20024;-68
2023/05/22 09:50:23;;;;;;;26.08;23.88;;;18.70;99.90;;;;;;5270164;28;20047;-68
2023/05/22 09:52:55;;;;;;;26.55;24.35;;;19.10;99.90;;;;;;5269309;28;20053;-66
2023/05/22 09:55:26;;;;;;;28.10;25.70;;;19.10;99.90;;;;;;5270319;28;20464;-69
2023/05/22 09:58:02;;;;;;;25.83;23.77;;;19.40;99.90;;;;;;5270247;28;20035;-70
2023/05/22 10:00:34;;;;;;;29.60;26.83;;;19.80;99.90;;;;;;5269945;28;20020;-70
2023/05/22 10:03:10;;;;;;;29.73;27.23;;;19.80;99.90;;;;;;5269681;28;20051;-69
2023/05/22 10:05:50;;;;;;;29.67;27.38;;;19.90;99.90;;;;;;5270279;28;20083;-69
2023/05/22 10:08:30;;;;;;;30.90;28.45;;;19.90;99.90;;;;;;5270078;28;20028;-69
2023/05/22 10:11:02;;;;;;;;;;;19.90;99.90;;;;;;5270385;28;20012;-69
2023/05/22 10:13:34;;;;;;;31.30;28.83;;;20.30;99.90;;;;;;5269906;28;19965;-69
2023/05/22 10:16:06;;;;;;;28.88;26.48;;;20.20;99.90;;;;;;5269883;28;20020;-69
2023/05/22 10:18:38;;;;;;;27.55;25.30;;;20.10;99.90;;;;;;5269671;28;20353;-66
2023/05/22 10:21:09;;;;;;;28.60;26.00;;;20.00;99.90;;;;;;5269626;28;20044;-69
2023/05/22 10:23:40;;;;;;;28.52;26.17;;;20.20;99.90;;;;;;5269769;28;20028;-68
2023/05/22 10:26:11;;;;;;;27.42;25.20;;;20.20;99.90;;;;;;5269675;28;20103;-69
2023/05/22 10:28:50;;;;;;;28.45;26.40;;;20.40;99.90;;;;;;5269656;28;20036;-69
2023/05/22 10:31:41;;;;;;;31.97;29.37;;;20.60;99.90;;;;;;5269634;28;20467;-68
2023/05/22 10:34:20;;;;;;;29.60;27.35;;;20.50;99.90;;;;;;5269490;28;20463;-69
2023/05/22 10:37:10;;;;;;;31.17;28.87;;;20.50;99.90;;;;;;5269481;28;20102;-68
2023/05/22 10:39:47;;;;;;;34.10;31.70;;;20.50;99.90;;;;;;5269458;28;20414;-69
2023/05/22 10:42:18;;;;;;;33.03;30.60;;;20.60;99.90;;;;;;5269517;28;20039;-66
2023/05/22 10:44:49;;;;;;;29.77;27.48;;;20.80;99.90;;;;;;5269408;28;20051;-69
2023/05/22 10:47:20;;;;;;;32.30;29.77;;;20.70;99.90;;;;;;5269547;28;20074;-68
2023/05/22 10:50:03;;;;;;;30.77;28.40;;;20.70;99.90;;;;;;5269319;28;20046;-68
2023/05/22 10:52:35;;;;;;;27.80;25.70;;;20.70;99.90;;;;;;5269357;28;20067;-69
2023/05/22 10:55:07;;;;;;;30.88;28.60;;;20.60;99.90;;;;;;5269253;28;20032;-68
2023/05/22 10:57:41;;;;;;;28.80;26.52;;;20.70;99.90;;;;;;5269086;28;20073;-69
2023/05/22 11:00:14;;;;;;;27.88;25.40;;;20.90;99.90;;;;;;5269045;28;20120;-69
2023/05/22 11:02:45;;;;;;;27.75;25.85;;;20.90;99.90;;;;;;5269073;28;20107;-69
2023/05/22 11:05:20;;;;;;;29.48;27.27;;;20.90;99.90;;;;;;5269001;28;20524;-68
2023/05/22 11:07:51;;;;;;;29.35;27.35;;;21.00;99.90;;;;;;5269007;28;20107;-68
2023/05/22 11:10:25;;;;;;;29.75;27.58;;;20.90;99.90;;;;;;5268937;28;20111;-69
2023/05/22 11:13:10;;;;;;;32.42;30.35;;;20.60;99.90;;;;;;5268858;28;20486;-69
2023/05/22 11:15:45;;;;;;;33.30;30.67;;;20.60;99.90;;;;;;5268779;28;20016;-66
2023/05/22 11:18:16;;;;;;;29.73;27.35;;;21.10;99.90;;;;;;5268512;28;20034;-66
2023/05/22 11:20:47;;;;;;;31.20;28.88;;;21.10;99.90;;;;;;5268563;28;20488;-67
2023/05/22 11:23:18;;;;;;;32.42;30.05;;;20.70;99.90;;;;;;5268651;28;20063;-68
2023/05/22 11:25:49;;;;;;;30.98;28.67;;;20.90;99.90;;;;;;5268689;28;20016;-69
2023/05/22 11:28:22;;;;;;;29.95;27.75;;;21.00;99.90;;;;;;5268550;28;20035;-69
2023/05/22 11:30:53;;;;;;;29.75;27.85;;;21.10;99.90;;;;;;5268520;28;20460;-69
2023/05/22 11:33:24;;;;;;;32.28;30.15;;;21.30;99.90;;;;;;5268390;28;20031;-69
2023/05/22 11:35:56;;;;;;;31.63;29.17;;;21.20;99.90;;;;;;5268273;28;20031;-69
2023/05/22 11:38:27;;;;;;;30.88;28.67;;;21.20;99.90;;;;;;5268240;28;20027;-69
2023/05/22 11:40:57;;;;;;;30.65;28.15;;;21.20;99.90;;;;;;5268187;28;20036;-66
2023/05/22 11:43:30;;;;;;;31.35;28.85;;;20.90;99.90;;;;;;5268193;28;20052;-67
2023/05/22 11:46:08;;;;;;;36.35;33.75;;;21.10;99.90;;;;;;5268644;28;20028;-69
2023/05/22 11:48:40;;;;;;;35.00;32.53;;;20.90;99.90;;;;;;5268028;28;20119;-68
2023/05/22 11:51:11;;;;;;;29.30;27.30;;;20.90;99.90;;;;;;5268157;28;20126;-69
2023/05/22 11:53:43;;;;;;;29.23;27.15;;;21.10;99.90;;;;;;5268039;28;20051;-69
2023/05/22 11:56:14;;;;;;;30.05;28.00;;;21.00;99.90;;;;;;5268168;28;20480;-68
2023/05/22 11:58:50;;;;;;;29.10;26.85;;;21.10;99.90;;;;;;5267981;28;20032;-68
2023/05/22 12:01:21;;;;;;;32.05;29.55;;;21.10;99.90;;;;;;5267992;28;20028;-68
2023/05/22 12:03:53;;;;;;;33.60;31.33;;;21.00;99.90;;;;;;5267990;28;20024;-69
2023/05/22 12:06:23;;;;;;;33.22;31.02;;;20.90;99.90;;;;;;5268465;28;20482;-67
2023/05/22 12:08:54;;;;;;;33.20;30.75;;;20.80;99.90;;;;;;5268163;28;20032;-69
2023/05/22 12:11:26;;;;;;;32.92;30.35;;;20.90;99.90;;;;;;5268134;28;20034;-69
2023/05/22 12:14:02;;;;;;;28.30;25.77;;;21.30;99.90;;;;;;5267964;28;20039;-69
2023/05/22 12:16:35;;;;;;;30.08;27.58;;;21.20;99.90;;;;;;5267939;28;20063;-69
2023/05/22 12:19:07;;;;;;;30.52;28.20;;;21.00;99.90;;;;;;5267838;28;20426;-69
2023/05/22 12:21:40;;;;;;;32.45;29.95;;;21.10;99.90;;;;;;5267830;28;20097;-66
2023/05/22 12:24:11;;;;;;;36.83;34.35;;;21.10;99.90;;;;;;5268282;28;20127;-68
2023/05/22 12:26:49;;;;;;;39.53;36.30;;;21.00;99.90;;;;;;5272106;28;20098;-69
2023/05/22 12:29:23;;;;;;;35.13;32.63;;;21.10;99.90;;;;;;5272120;28;20035;-68
2023/05/22 12:32:01;;;;;;;33.00;30.65;;;21.30;99.90;;;;;;5272098;28;20023;-66
2023/05/22 12:34:43;;;;;;;37.10;34.45;;;21.20;99.90;;;;;;5271928;28;20024;-69
2023/05/22 12:37:32;;;;;;;36.03;33.45;;;21.70;99.90;;;;;;5271879;28;20028;-69
2023/05/22 12:40:04;;;;;;;37.72;34.97;;;21.10;99.90;;;;;;5272040;28;20482;-66
2023/05/22 12:42:35;;;;;;;36.33;33.78;;;21.40;99.90;;;;;;5271829;28;20032;-69
2023/05/22 12:45:06;;;;;;;36.25;33.70;;;21.80;99.90;;;;;;5271674;28;20046;-69
2023/05/22 12:47:37;;;;;;;35.10;32.80;;;21.60;99.90;;;;;;5271659;28;20028;-66
2023/05/22 12:50:08;;;;;;;36.47;33.85;;;21.50;99.90;;;;;;5271256;28;20499;-67
2023/05/22 12:52:39;;;;;;;40.17;37.50;;;21.30;99.90;;;;;;5271533;28;20032;-69
2023/05/22 12:55:10;;;;;;;37.78;35.17;;;21.40;99.90;;;;;;5271453;28;20494;-69